Roanoke, VA

8:30 AM EDT on September 21, 2014 (GMT -0400)
New River Valley | Change Station
CLOSE
Current Station
Airport
Location: Dublin,
Elevation: 2106 ft
Nearby Weather Stations

Elev 2106 ft 37.14 °N, 80.68 °W | Updated 35 minutes ago

Clear
Clear
53 °F
Feels Like 53 °F
N
0
Wind Variable Wind from North

Today
High -- | Low -- °F
--% Chance of Precip.
Yesterday
High -- | Low -- °F
Precip. -- in
7:06 AM 7:18 PM
Waning Crescent, 7% visible
Pressure 30.03 in
Visibility 1.2 miles
Clouds Overcast 100 ft
Dew Point 53 °F
Humidity 100%
Rainfall 0.00 in
Snow Depth Not available.
UV 0 out of 12
Pollen 5.20 out of 12
Ozone Good
PM2.5 Good
Flu Activity Not available.
METAR KPSK 211155Z AUTO 00000KT 1 1/4SM BR OVC001 12/12 A3003 RMK AO2 T01180118 10136 20110

More Conditions Fewer Conditions

Pressure 30.03 in
Visibility 1.2 miles
Clouds Overcast 100 ft
Dew Point 53 °F
Humidity 100%
Rainfall 0.00 in
Snow Depth Not available.
UV 0 out of 12
Pollen 5.20 out of 12
Ozone Good
PM2.5 Good
Flu Activity Not available.
METAR KPSK 211155Z AUTO 00000KT 1 1/4SM BR OVC001 12/12 A3003 RMK AO2 T01180118 10136 20110

More Conditions Fewer Conditions

10-Day Weather Forecast

Almanac

Astronomy

Sep. 21, 2014 Rise Set
Actual Time 7:06 AM EDT 7:18 PM EDT
Civil Twilight 6:40 AM EDT 7:44 PM EDT
Nautical Twilight 6:10 AM EDT 8:14 PM EDT
Astronomical Twilight 5:39 AM EDT 8:45 PM EDT
Moon 4:41 AM EDT 5:51 PM EDT
Length of Visible Light 13h 03m
Length of Day
12h 11m
Tomorrow will be 2m 21s shorter.
Waning Crescent, 7% of the Moon is Illuminated
Today
Waning Crescent
Sep 24
New
Oct 1
First Quarter
Oct 8
Full
Oct 15
Last Quarter

Today's Extremes

State Highs State Lows

Community

WunderPhotos

Upload Photos

1,755,127 photos uploaded!

Nearby

Air Quality

  Air Quality AQ Index Pollutant
Yesterday Good
PM2.5
Yesterday Good
OZONE
Current Good
PM2.5
Current Good
OZONE
Sunday Good
PM2.5
Monday Good
PM2.5

Snow Depth

Station Depth Elevation
No new snow has been reported.

Earthquake Activity

City Distance Mag. Time & Date
No recent earthquake activity has been reported nearby.
Minimum magnitude displayed is 2.5.

Coastal Water Temperatures

Place Temperature
No Stations Reporting

Nearby Weather Stations